createdAt,value
2018-09-10T00:00:52.235Z,14.36
2018-09-10T00:03:21.197Z,14.30
2018-09-10T00:05:50.150Z,14.27
2018-09-10T00:08:19.092Z,14.29
2018-09-10T00:10:48.551Z,14.33
2018-09-10T00:13:19.724Z,14.35
2018-09-10T00:15:48.644Z,14.38
2018-09-10T00:18:17.732Z,14.41
2018-09-10T00:20:46.628Z,14.40
2018-09-10T00:23:15.652Z,14.41
2018-09-10T00:25:46.747Z,14.50
2018-09-10T00:28:15.858Z,14.58
2018-09-10T00:30:44.900Z,14.63
2018-09-10T00:33:13.778Z,14.63
2018-09-10T00:35:42.713Z,14.60
2018-09-10T00:38:12.392Z,14.55
2018-09-10T00:40:41.428Z,14.48
2018-09-10T00:43:11.322Z,14.43
2018-09-10T00:45:40.360Z,14.40
2018-09-10T00:48:09.607Z,14.38
2018-09-10T00:50:40.678Z,14.39
2018-09-10T00:53:09.707Z,14.40
2018-09-10T00:55:38.804Z,14.43
2018-09-10T00:58:07.864Z,14.45
2018-09-10T01:00:36.796Z,14.46
2018-09-10T01:03:05.619Z,14.46
2018-09-10T01:05:34.561Z,14.49
2018-09-10T01:08:03.552Z,14.51
2018-09-10T01:10:32.388Z,14.56
2018-09-10T01:13:01.264Z,14.61
2018-09-10T01:15:30.044Z,14.63
2018-09-10T01:17:59.127Z,14.66
2018-09-10T01:20:28.002Z,14.68
2018-09-10T01:22:56.832Z,14.69
2018-09-10T01:25:25.824Z,14.68
2018-09-10T01:27:54.830Z,14.66
2018-09-10T01:30:23.662Z,14.67
2018-09-10T01:32:52.639Z,14.65
2018-09-10T01:35:21.500Z,14.61
2018-09-10T01:37:52.415Z,14.59
2018-09-10T01:40:21.272Z,14.62
2018-09-10T01:42:50.263Z,14.61
2018-09-10T01:45:19.119Z,14.62
2018-09-10T01:47:48.010Z,14.69
2018-09-10T01:50:16.820Z,14.78
2018-09-10T01:52:45.749Z,14.82
2018-09-10T01:55:14.584Z,14.85
2018-09-10T01:57:43.521Z,14.83
2018-09-10T02:00:12.587Z,14.80
2018-09-10T02:02:41.504Z,14.74
2018-09-10T02:05:10.474Z,14.69
2018-09-10T02:07:39.359Z,14.69
2018-09-10T02:10:08.344Z,14.66
2018-09-10T02:12:37.202Z,14.68
2018-09-10T02:15:06.173Z,14.70
2018-09-10T02:17:35.073Z,14.72
2018-09-10T02:20:04.062Z,14.73
2018-09-10T02:22:32.993Z,14.71
2018-09-10T02:25:01.978Z,14.69
2018-09-10T02:27:30.816Z,14.68
2018-09-10T02:29:59.682Z,14.63
2018-09-10T02:32:28.596Z,14.60
2018-09-10T02:34:57.584Z,14.58
2018-09-10T02:37:26.396Z,14.54
2018-09-10T02:39:55.391Z,14.54
2018-09-10T02:42:24.233Z,14.57
2018-09-10T02:44:53.217Z,14.56
2018-09-10T02:47:22.966Z,14.54
2018-09-10T02:49:51.892Z,14.53
2018-09-10T02:52:20.840Z,14.50
2018-09-10T02:54:49.790Z,14.47
2018-09-10T02:57:18.712Z,14.49
2018-09-10T02:59:47.530Z,14.45
2018-09-10T03:02:16.353Z,14.41
2018-09-10T03:04:46.037Z,14.40
2018-09-10T03:07:15.960Z,14.36
2018-09-10T03:09:45.005Z,14.31
2018-09-10T03:12:13.968Z,14.29
2018-09-10T03:14:42.901Z,14.30
2018-09-10T03:17:11.840Z,14.34
2018-09-10T03:19:40.697Z,14.38
2018-09-10T03:22:09.553Z,14.41
2018-09-10T03:24:38.480Z,14.44
2018-09-10T03:27:07.372Z,14.47
2018-09-10T03:29:36.247Z,14.56
2018-09-10T03:32:05.025Z,14.70
2018-09-10T03:34:33.870Z,14.83
2018-09-10T03:37:02.768Z,14.89
2018-09-10T03:39:31.672Z,14.94
2018-09-10T03:42:00.485Z,14.93
2018-09-10T03:44:29.327Z,14.92
2018-09-10T03:46:58.293Z,14.94
2018-09-10T03:49:27.144Z,14.99
2018-09-10T03:51:56.105Z,15.06
2018-09-10T03:54:25.136Z,15.21
2018-09-10T03:56:54.005Z,15.32
2018-09-10T03:59:22.966Z,15.38
2018-09-10T04:01:51.975Z,15.43
2018-09-10T04:04:20.922Z,15.45
2018-09-10T04:06:49.765Z,15.44
2018-09-10T04:09:18.677Z,15.39
2018-09-10T04:11:47.617Z,15.34
2018-09-10T04:14:16.479Z,15.25
2018-09-10T04:16:45.320Z,15.15
2018-09-10T04:19:14.350Z,15.06
2018-09-10T04:21:43.198Z,15.02
2018-09-10T04:24:12.204Z,14.96
2018-09-10T04:26:41.251Z,14.92
2018-09-10T04:29:10.100Z,14.90
2018-09-10T04:31:38.985Z,14.90
2018-09-10T04:34:07.887Z,14.92
2018-09-10T04:36:36.891Z,14.96
2018-09-10T04:39:07.681Z,15.04
2018-09-10T04:41:40.775Z,15.07
2018-09-10T04:44:09.690Z,15.12
2018-09-10T04:46:39.704Z,15.16
2018-09-10T04:49:09.732Z,15.22
2018-09-10T04:51:38.777Z,15.25
2018-09-10T04:54:07.649Z,15.30
2018-09-10T04:56:36.571Z,15.37
2018-09-10T04:59:05.491Z,15.43
2018-09-10T05:01:34.445Z,15.45
2018-09-10T05:04:03.449Z,15.49
2018-09-10T05:06:32.314Z,15.50
2018-09-10T05:09:01.249Z,15.51
2018-09-10T05:11:30.139Z,15.49
2018-09-10T05:13:59.132Z,15.48
2018-09-10T05:16:28.084Z,15.46
2018-09-10T05:18:57.096Z,15.44
2018-09-10T05:21:26.111Z,15.45
2018-09-10T05:23:55.057Z,15.50
2018-09-10T05:26:24.071Z,15.61
2018-09-10T05:28:53.124Z,15.75
2018-09-10T05:31:22.199Z,15.85
2018-09-10T05:33:51.068Z,15.94
2018-09-10T05:36:20.110Z,15.99
2018-09-10T05:38:49.078Z,16.04
2018-09-10T05:41:17.998Z,16.07
2018-09-10T05:43:46.934Z,16.10
2018-09-10T05:46:15.904Z,16.11
2018-09-10T05:48:44.931Z,16.15
2018-09-10T05:51:13.811Z,16.21
2018-09-10T05:53:42.752Z,16.27
2018-09-10T05:56:11.857Z,16.33
2018-09-10T05:58:40.751Z,16.37
2018-09-10T06:01:09.767Z,16.40
2018-09-10T06:03:38.800Z,16.45
2018-09-10T06:06:07.756Z,16.56
2018-09-10T06:08:36.874Z,16.69
2018-09-10T06:11:05.836Z,16.90
2018-09-10T06:13:34.774Z,17.07
2018-09-10T06:16:03.827Z,17.27
2018-09-10T06:18:32.824Z,17.39
2018-09-10T06:21:01.878Z,17.50
2018-09-10T06:23:30.797Z,17.61
2018-09-10T06:25:59.705Z,17.78
2018-09-10T06:28:28.647Z,17.97
2018-09-10T06:30:57.528Z,18.16
2018-09-10T06:33:26.505Z,18.31
2018-09-10T06:35:55.546Z,18.45
2018-09-10T06:38:24.493Z,18.49
2018-09-10T06:40:53.500Z,18.44
2018-09-10T06:43:22.537Z,18.40
2018-09-10T06:45:51.801Z,18.41
2018-09-10T06:48:28.510Z,18.47
2018-09-10T06:50:57.664Z,18.58
2018-09-10T06:53:26.677Z,18.68
2018-09-10T06:55:55.605Z,18.74
2018-09-10T06:58:24.672Z,18.66
2018-09-10T07:00:53.661Z,18.65
2018-09-10T07:03:22.659Z,18.61
2018-09-10T07:05:51.711Z,18.54
2018-09-10T07:08:28.311Z,18.60
2018-09-10T07:10:57.204Z,18.65
2018-09-10T07:13:26.659Z,18.75
2018-09-10T07:15:55.842Z,18.98
2018-09-10T07:18:25.753Z,19.26
2018-09-10T07:20:54.752Z,19.47
2018-09-10T07:23:23.768Z,19.63
2018-09-10T07:25:52.732Z,19.81
2018-09-10T07:28:22.813Z,20.06
2018-09-10T07:30:51.847Z,20.31
2018-09-10T07:33:20.839Z,20.31
2018-09-10T07:35:49.883Z,20.22
2018-09-10T07:38:18.913Z,20.14
2018-09-10T07:40:47.973Z,20.02
2018-09-10T07:43:17.261Z,20.00
2018-09-10T07:45:46.285Z,19.96
2018-09-10T07:48:15.207Z,19.87
2018-09-10T07:50:44.119Z,19.77
2018-09-10T07:53:13.255Z,19.75
2018-09-10T07:55:42.204Z,19.71
2018-09-10T07:58:11.253Z,19.75
2018-09-10T08:00:40.304Z,19.79
2018-09-10T08:03:09.329Z,19.80
2018-09-10T08:05:38.274Z,19.83
2018-09-10T08:08:08.313Z,19.80
2018-09-10T08:10:37.315Z,19.91
2018-09-10T08:13:06.277Z,20.00
2018-09-10T08:15:35.215Z,20.17
2018-09-10T08:18:04.101Z,20.21
2018-09-10T08:20:33.053Z,20.29
2018-09-10T08:23:02.002Z,20.46
2018-09-10T08:25:31.085Z,20.49
2018-09-10T08:28:00.129Z,20.54
2018-09-10T08:30:29.181Z,20.60
2018-09-10T08:32:58.116Z,20.67
2018-09-10T08:35:27.141Z,20.93
2018-09-10T08:37:56.113Z,21.13
2018-09-10T08:40:24.952Z,21.00
2018-09-10T08:42:53.872Z,20.69
2018-09-10T08:45:22.837Z,20.57
2018-09-10T08:47:51.792Z,20.60
2018-09-10T08:50:20.847Z,20.73
2018-09-10T08:52:49.773Z,21.04
2018-09-10T08:55:18.907Z,21.37
2018-09-10T08:57:47.695Z,21.49
2018-09-10T09:00:16.733Z,21.51
2018-09-10T09:02:45.758Z,21.46
2018-09-10T09:05:14.669Z,21.40
2018-09-10T09:07:43.579Z,21.36
2018-09-10T09:10:12.487Z,21.43
2018-09-10T09:12:41.520Z,21.63
2018-09-10T09:15:10.508Z,21.61
2018-09-10T09:17:39.471Z,21.67
2018-09-10T09:20:08.577Z,21.95
2018-09-10T09:22:37.563Z,22.15
2018-09-10T09:25:06.489Z,22.49
2018-09-10T09:27:35.566Z,22.85
2018-09-10T09:30:04.689Z,23.06
2018-09-10T09:32:33.752Z,22.95
2018-09-10T09:35:02.670Z,22.70
2018-09-10T09:37:36.852Z,22.79
2018-09-10T09:40:11.264Z,23.07
2018-09-10T09:42:45.307Z,23.15
2018-09-10T09:45:19.449Z,22.98
2018-09-10T09:47:48.537Z,22.69
2018-09-10T09:50:17.623Z,22.37
2018-09-10T09:52:46.724Z,22.42
2018-09-10T09:55:15.673Z,22.66
2018-09-10T09:57:44.705Z,22.80
2018-09-10T10:00:18.792Z,22.91
2018-09-10T10:02:52.994Z,23.25
2018-09-10T10:05:22.041Z,23.42
2018-09-10T10:07:51.140Z,23.68
2018-09-10T10:10:20.518Z,23.50
2018-09-10T10:12:49.489Z,23.10
2018-09-10T10:15:19.091Z,22.97
2018-09-10T10:17:48.081Z,22.87
2018-09-10T10:20:21.481Z,22.88
2018-09-10T10:22:50.474Z,23.11
2018-09-10T10:25:19.469Z,23.14
2018-09-10T10:27:48.331Z,23.24
2018-09-10T10:30:17.452Z,23.22
2018-09-10T10:32:46.549Z,23.31
2018-09-10T10:35:15.571Z,23.15
2018-09-10T10:37:44.555Z,23.14
2018-09-10T10:40:31.707Z,23.19
2018-09-10T10:43:00.672Z,23.14
2018-09-10T10:45:29.673Z,23.13
2018-09-10T10:47:58.678Z,22.95
2018-09-10T10:50:28.723Z,22.92
2018-09-10T10:52:57.744Z,22.65
2018-09-10T10:55:26.597Z,22.42
2018-09-10T10:57:55.596Z,22.54
2018-09-10T11:00:24.712Z,22.93
2018-09-10T11:02:53.694Z,23.31
2018-09-10T11:05:22.740Z,23.54
2018-09-10T11:07:51.622Z,23.65
2018-09-10T11:10:20.664Z,24.04
2018-09-10T11:12:49.551Z,24.14
2018-09-10T11:15:18.713Z,24.68
2018-09-10T11:17:47.683Z,25.13
2018-09-10T11:20:27.365Z,25.40
2018-09-10T11:22:56.269Z,25.76
2018-09-10T11:25:25.325Z,25.40
2018-09-10T11:27:54.264Z,24.81
2018-09-10T11:30:36.816Z,24.38
2018-09-10T11:33:05.936Z,24.22
2018-09-10T11:35:35.072Z,24.03
2018-09-10T11:38:04.068Z,23.97
2018-09-10T11:40:32.931Z,24.19
2018-09-10T11:43:01.837Z,24.33
2018-09-10T11:45:30.793Z,24.58
2018-09-10T11:47:59.777Z,24.61
2018-09-10T11:50:28.915Z,24.55
2018-09-10T11:52:57.922Z,24.46
2018-09-10T11:55:27.009Z,24.42
2018-09-10T11:57:55.937Z,24.50
2018-09-10T12:00:25.598Z,24.27
2018-09-10T12:02:55.096Z,24.23
2018-09-10T12:05:24.607Z,24.21
2018-09-10T12:07:54.155Z,24.26
2018-09-10T12:10:23.819Z,23.72
2018-09-10T12:12:53.510Z,22.94
2018-09-10T12:15:22.518Z,22.78
2018-09-10T12:17:51.445Z,22.49
2018-09-10T12:20:20.537Z,22.50
2018-09-10T12:22:49.590Z,22.67
2018-09-10T12:25:18.600Z,22.86
2018-09-10T12:27:47.485Z,22.69
2018-09-10T12:30:16.479Z,22.68
2018-09-10T12:32:45.362Z,22.64
2018-09-10T12:35:14.262Z,22.79
2018-09-10T12:37:43.159Z,23.37
2018-09-10T12:40:12.194Z,23.65
2018-09-10T12:42:41.210Z,23.87
2018-09-10T12:45:10.269Z,23.61
2018-09-10T12:47:39.250Z,23.70
2018-09-10T12:50:08.364Z,23.71
2018-09-10T12:52:37.393Z,23.83
2018-09-10T12:55:06.501Z,23.71
2018-09-10T12:57:35.572Z,23.43
2018-09-10T13:00:04.697Z,23.60
2018-09-10T13:02:33.740Z,23.91
2018-09-10T13:05:02.665Z,24.64
2018-09-10T13:07:31.517Z,24.26
2018-09-10T13:10:01.675Z,24.10
2018-09-10T13:12:30.575Z,24.04
2018-09-10T13:14:59.597Z,24.27
2018-09-10T13:17:28.538Z,24.75
2018-09-10T13:19:57.733Z,25.00
2018-09-10T13:22:26.709Z,25.59
2018-09-10T13:24:55.707Z,25.58
2018-09-10T13:27:24.779Z,25.00
2018-09-10T13:29:53.721Z,24.47
2018-09-10T13:32:22.712Z,24.20
2018-09-10T13:34:51.634Z,24.05
2018-09-10T13:37:20.594Z,24.20
2018-09-10T13:39:49.624Z,24.02
2018-09-10T13:42:18.640Z,23.54
2018-09-10T13:44:47.657Z,23.06
2018-09-10T13:47:16.649Z,22.86
2018-09-10T13:49:45.760Z,22.77
2018-09-10T13:52:14.751Z,22.83
2018-09-10T13:54:43.727Z,22.84
2018-09-10T13:57:12.752Z,22.56
2018-09-10T13:59:41.903Z,22.56
2018-09-10T14:02:10.839Z,22.58
2018-09-10T14:04:39.838Z,22.62
2018-09-10T14:07:08.800Z,22.50
2018-09-10T14:09:37.812Z,22.52
2018-09-10T14:12:06.752Z,22.23
2018-09-10T14:14:35.744Z,22.29
2018-09-10T14:17:04.685Z,22.10
2018-09-10T14:19:35.952Z,22.09
2018-09-10T14:22:04.877Z,22.09
2018-09-10T14:24:33.825Z,22.13
2018-09-10T14:27:02.988Z,22.12
2018-09-10T14:29:31.971Z,22.16
2018-09-10T14:32:00.965Z,22.20
2018-09-10T14:34:29.893Z,22.21
2018-09-10T14:36:58.956Z,22.33
2018-09-10T14:39:27.985Z,22.35
2018-09-10T14:41:56.938Z,22.31
2018-09-10T14:44:25.945Z,21.90
2018-09-10T14:46:54.985Z,21.85
2018-09-10T14:49:24.089Z,21.87
2018-09-10T14:51:53.000Z,21.86
2018-09-10T14:54:22.251Z,21.80
2018-09-10T14:56:51.260Z,21.77
2018-09-10T14:59:20.312Z,21.83
2018-09-10T15:01:49.127Z,21.87
2018-09-10T15:04:18.164Z,21.86
2018-09-10T15:06:47.044Z,22.07
2018-09-10T15:09:15.913Z,22.19
2018-09-10T15:11:44.940Z,22.23
2018-09-10T15:14:13.824Z,22.18
2018-09-10T15:16:42.761Z,21.97
2018-09-10T15:19:11.864Z,21.93
2018-09-10T15:21:40.893Z,21.79
2018-09-10T15:24:09.884Z,21.57
2018-09-10T15:26:38.903Z,21.49
2018-09-10T15:31:37.813Z,21.41
2018-09-10T15:34:06.805Z,21.46
2018-09-10T15:36:35.830Z,21.57
2018-09-10T15:39:06.078Z,21.73
2018-09-10T15:41:34.982Z,21.86
2018-09-10T15:44:03.897Z,21.88
2018-09-10T15:46:32.947Z,21.76
2018-09-10T15:49:02.988Z,21.65
2018-09-10T15:51:32.043Z,21.63
2018-09-10T15:54:00.934Z,21.71
2018-09-10T15:56:29.906Z,21.70
2018-09-10T15:58:58.875Z,21.69
2018-09-10T16:01:27.911Z,21.60
2018-09-10T16:03:57.043Z,21.61
2018-09-10T16:06:25.977Z,21.53
2018-09-10T16:08:54.951Z,21.44
2018-09-10T16:11:24.052Z,21.41
2018-09-10T16:13:53.013Z,21.35
2018-09-10T16:16:22.059Z,21.27
2018-09-10T16:18:51.042Z,21.24
2018-09-10T16:21:20.117Z,21.13
2018-09-10T16:23:48.953Z,21.18
2018-09-10T16:26:17.864Z,21.15
2018-09-10T16:28:46.750Z,21.12
2018-09-10T16:31:15.643Z,21.08
2018-09-10T16:33:44.609Z,21.07
2018-09-10T16:36:13.609Z,21.02
2018-09-10T16:38:42.451Z,21.00
2018-09-10T16:41:11.438Z,20.95
2018-09-10T16:43:40.289Z,20.88
2018-09-10T16:46:09.257Z,20.77
2018-09-10T16:48:38.302Z,20.69
2018-09-10T16:51:07.292Z,20.62
2018-09-10T16:53:36.270Z,20.58
2018-09-10T16:56:05.276Z,20.52
2018-09-10T16:58:34.314Z,20.53
2018-09-10T17:01:04.329Z,20.50
2018-09-10T17:03:33.250Z,20.48
2018-09-10T17:06:02.181Z,20.40
2018-09-10T17:08:31.038Z,20.39
2018-09-10T17:11:00.063Z,20.32
2018-09-10T17:13:28.939Z,20.22
2018-09-10T17:15:57.825Z,20.17
2018-09-10T17:18:26.911Z,20.10
2018-09-10T17:20:55.824Z,20.00
2018-09-10T17:23:24.783Z,19.94
2018-09-10T17:25:55.059Z,19.88
2018-09-10T17:28:24.177Z,19.81
2018-09-10T17:30:53.753Z,19.73
2018-09-10T17:33:22.623Z,19.59
2018-09-10T17:35:51.484Z,19.46
2018-09-10T17:38:20.484Z,19.41
2018-09-10T17:40:49.484Z,19.31
2018-09-10T17:43:18.327Z,19.25
2018-09-10T17:45:47.190Z,19.29
2018-09-10T17:48:16.172Z,19.40
2018-09-10T17:50:45.235Z,19.41
2018-09-10T17:53:14.145Z,19.31
2018-09-10T17:55:42.992Z,19.20
2018-09-10T17:58:11.989Z,19.10
2018-09-10T18:00:42.138Z,19.03
2018-09-10T18:03:12.467Z,18.96
2018-09-10T18:05:41.889Z,18.91
2018-09-10T18:08:10.771Z,18.85
2018-09-10T18:10:39.687Z,18.79
2018-09-10T18:13:08.640Z,18.72
2018-09-10T18:15:37.547Z,18.63
2018-09-10T18:18:06.497Z,18.55
2018-09-10T18:20:35.537Z,18.47
2018-09-10T18:23:04.332Z,18.37
2018-09-10T18:25:35.812Z,18.26
2018-09-10T18:28:04.774Z,18.04
2018-09-10T18:30:33.733Z,17.80
2018-09-10T18:33:02.750Z,17.54
2018-09-10T18:35:31.736Z,17.34
2018-09-10T18:38:00.697Z,17.17
2018-09-10T18:40:29.585Z,16.99
2018-09-10T18:42:58.649Z,16.83
2018-09-10T18:45:27.501Z,16.65
2018-09-10T18:47:56.517Z,16.48
2018-09-10T18:50:25.412Z,16.30
2018-09-10T18:52:55.284Z,16.15
2018-09-10T18:55:24.197Z,16.02
2018-09-10T18:57:53.605Z,15.92
2018-09-10T19:00:22.795Z,15.83
2018-09-10T19:02:51.743Z,15.78
2018-09-10T19:05:21.030Z,15.78
2018-09-10T19:07:50.360Z,15.76
2018-09-10T19:10:19.669Z,15.75
2018-09-10T19:12:49.010Z,15.74
2018-09-10T19:15:18.399Z,15.69
2018-09-10T19:17:47.806Z,15.66
2018-09-10T19:20:17.064Z,15.61
2018-09-10T19:22:49.746Z,15.58
2018-09-10T19:25:19.163Z,15.60
2018-09-10T19:27:48.089Z,15.70
2018-09-10T19:30:17.117Z,15.71
2018-09-10T19:32:46.144Z,15.69
2018-09-10T19:35:15.089Z,15.65
2018-09-10T19:37:44.191Z,15.63
2018-09-10T19:40:13.240Z,15.61
2018-09-10T19:42:42.327Z,15.59
2018-09-10T19:45:11.192Z,15.62
2018-09-10T19:47:40.211Z,15.59
2018-09-10T19:50:09.184Z,15.56
2018-09-10T19:52:38.065Z,15.60
2018-09-10T19:55:07.033Z,15.53
2018-09-10T19:57:35.945Z,15.49
2018-09-10T20:00:04.826Z,15.45
2018-09-10T20:02:33.831Z,15.44
2018-09-10T20:05:02.812Z,15.47
2018-09-10T20:07:31.756Z,15.52
2018-09-10T20:10:00.643Z,15.51
2018-09-10T20:12:29.581Z,15.49
2018-09-10T20:14:58.452Z,15.49
2018-09-10T20:17:27.287Z,15.51
2018-09-10T20:19:56.083Z,15.49
2018-09-10T20:22:25.078Z,15.49
2018-09-10T20:24:54.056Z,15.51
2018-09-10T20:27:22.977Z,15.54
2018-09-10T20:29:51.907Z,15.55
2018-09-10T20:32:21.016Z,15.63
2018-09-10T20:34:50.012Z,15.74
2018-09-10T20:37:19.024Z,15.88
2018-09-10T20:39:47.928Z,15.97
2018-09-10T20:42:16.821Z,15.95
2018-09-10T20:44:45.849Z,15.93
2018-09-10T20:47:14.831Z,15.94
2018-09-10T20:49:43.714Z,15.97
2018-09-10T20:52:12.839Z,16.00
2018-09-10T20:54:41.811Z,16.14
2018-09-10T20:57:10.769Z,16.40
2018-09-10T20:59:39.751Z,16.66
2018-09-10T21:02:08.594Z,16.76
2018-09-10T21:04:37.504Z,16.74
2018-09-10T21:07:06.441Z,16.68
2018-09-10T21:09:35.372Z,16.63
2018-09-10T21:12:04.456Z,16.62
2018-09-10T21:14:33.476Z,16.63
2018-09-10T21:17:02.593Z,16.56
2018-09-10T21:19:31.499Z,16.49
2018-09-10T21:22:00.489Z,16.39
2018-09-10T21:24:29.648Z,16.38
2018-09-10T21:26:58.611Z,16.41
2018-09-10T21:29:27.631Z,16.49
2018-09-10T21:31:56.465Z,16.49
2018-09-10T21:34:25.431Z,16.43
2018-09-10T21:36:54.295Z,16.38
2018-09-10T21:39:23.227Z,16.39
2018-09-10T21:41:52.163Z,16.40
2018-09-10T21:44:21.137Z,16.40
2018-09-10T21:46:50.245Z,16.33
2018-09-10T21:49:19.074Z,16.23
2018-09-10T21:51:47.997Z,16.15
2018-09-10T21:54:16.911Z,16.08
2018-09-10T21:56:45.812Z,16.06
2018-09-10T21:59:14.721Z,15.97
2018-09-10T22:01:43.516Z,15.82
2018-09-10T22:04:12.599Z,15.79
2018-09-10T22:06:41.522Z,15.74
2018-09-10T22:09:10.462Z,15.64
2018-09-10T22:11:46.277Z,15.45
2018-09-10T22:14:15.293Z,15.20
2018-09-10T22:16:44.152Z,15.01
2018-09-10T22:19:13.208Z,14.87
2018-09-10T22:21:42.548Z,14.77
2018-09-10T22:24:11.437Z,14.79
2018-09-10T22:26:40.399Z,14.87
2018-09-10T22:29:09.265Z,15.02
2018-09-10T22:31:38.185Z,15.10
2018-09-10T22:34:07.133Z,15.12
2018-09-10T22:36:36.107Z,15.10
2018-09-10T22:39:07.464Z,15.00
2018-09-10T22:41:36.338Z,14.98
2018-09-10T22:44:06.228Z,14.95
2018-09-10T22:46:35.815Z,14.95
2018-09-10T22:49:05.349Z,15.00
2018-09-10T22:51:34.285Z,15.06
2018-09-10T22:54:03.281Z,15.15
2018-09-10T22:56:32.213Z,15.21
2018-09-10T22:59:01.276Z,15.33
2018-09-10T23:01:30.163Z,15.40
2018-09-10T23:03:59.108Z,15.35
2018-09-10T23:06:27.901Z,15.28
2018-09-10T23:08:56.841Z,15.23
2018-09-10T23:11:25.655Z,15.17
2018-09-10T23:13:54.528Z,15.16
2018-09-10T23:16:23.566Z,15.24
2018-09-10T23:18:52.492Z,15.32
2018-09-10T23:21:21.488Z,15.32
2018-09-10T23:23:50.511Z,15.31
2018-09-10T23:26:19.316Z,15.36
2018-09-10T23:28:48.288Z,15.41
2018-09-10T23:31:17.097Z,15.41
2018-09-10T23:33:46.032Z,15.39
2018-09-10T23:36:14.965Z,15.40
2018-09-10T23:38:43.928Z,15.48
2018-09-10T23:41:12.744Z,15.48
2018-09-10T23:43:41.741Z,15.49
2018-09-10T23:46:10.532Z,15.47
2018-09-10T23:48:39.527Z,15.45
2018-09-10T23:51:08.437Z,15.45
2018-09-10T23:53:37.361Z,15.46
2018-09-10T23:56:06.261Z,15.50
2018-09-10T23:58:35.217Z,15.54
